10:32
Airports
History
Links
Donate
Help keep this website running!
PayPal
Bitcoin
This page is community maintained. The information is intended for PC simulator navigation or reference.
Always use approved charts for navigation.
81Y
Aarons Field
Aarons Field (81Y)
Aurora, Nebraska, United States (68818)
4
Lat/Lng:40° 51' 45.04" N / 98° 3' 51.2" W
40.862512 / -98.064222
Elevation:1825'ft / 556mMSL
ID / ICAO:81Y
Runways:1
Longest:(36-18) 804.7m / 2,640ft Grass
Distance To
Airport ID:
Nearby VORs <50NM
Nearby NDBs
Nearby WeatherUpdated 08-24-17 09:53 GMT
Nearby weather at KGRI, Central Nebraska Rgnl located 14.7 nautical miles from 81Y
Altimeter: 29.99
Visibility: 10.0 statute miles
Wind: 11 knots (190°)
Temp: 17°c 63°f
Humidity: 77.3%

METAR: KGRI 240953Z AUTO 19011KT 10SM CLR 17/13 A2999 RMK AO2 SLP146 T01720128

(Powered by phpweather)
Runway 36 / 18
Dimensions:804.7 x 19.8m 2640' x 65'ft
Surface:Grass
Runway 36 [A]Runway 18 [B]
Heading:007°TH 187°TH
Lat:
Lng:
40° 51' 32.11"N
98° 3' 53.3"W
40° 51' 57.98"N
98° 3' 49.1"W
User Notes and Comments
Google Map
Nearby Airports
(U) Aurora Muni - Al Potter Field 4.2 NM
KAUH ENE 59°
4 Terry Farm 11.5 NM
NE48 WNW 303°
(R) Boardman Aerial 13.4 NM
38NE SE 124°
(U) Harvard State 14.6 NM
08K S 183°
(C) Central Nebraska Rgnl 14.7 NM
KGRI (WX) WNW 299°
4 Merchant Homestead 16.7 NM
7NE6 NE 52°
4 Traudt 17.0 NM
NE86 SE 143°
VFR Chart
Flight Planning at SkyVector.com